createdAt,value
2018-07-26T00:00:37.936Z,95620.98
2018-07-26T00:03:07.210Z,95619.27
2018-07-26T00:05:36.264Z,95628.58
2018-07-26T00:08:05.456Z,95628.02
2018-07-26T00:10:34.845Z,95634.36
2018-07-26T00:13:03.935Z,95629.17
2018-07-26T00:15:33.172Z,95626.98
2018-07-26T00:18:02.323Z,95623.16
2018-07-26T00:20:31.796Z,95624.20
2018-07-26T00:23:00.927Z,95625.59
2018-07-26T00:25:30.218Z,95633.91
2018-07-26T00:27:59.277Z,95634.14
2018-07-26T00:30:28.421Z,95626.19
2018-07-26T00:32:57.535Z,95624.91
2018-07-26T00:35:26.645Z,95623.98
2018-07-26T00:37:55.898Z,95618.69
2018-07-26T00:40:25.141Z,95625.71
2018-07-26T00:42:54.249Z,95625.59
2018-07-26T00:45:23.391Z,95626.40
2018-07-26T00:47:52.577Z,95626.28
2018-07-26T00:50:21.977Z,95619.60
2018-07-26T00:52:51.051Z,95623.73
2018-07-26T00:55:20.181Z,95621.45
2018-07-26T00:57:49.385Z,95626.40
2018-07-26T01:00:19.616Z,95628.47
2018-07-26T01:02:48.694Z,95624.56
2018-07-26T01:05:17.905Z,95620.27
2018-07-26T01:07:47.022Z,95622.47
2018-07-26T01:10:16.132Z,95622.16
2018-07-26T01:12:45.389Z,95615.25
2018-07-26T01:15:14.498Z,95617.44
2018-07-26T01:17:43.720Z,95618.70
2018-07-26T01:20:12.861Z,95613.73
2018-07-26T01:22:42.122Z,95620.77
2018-07-26T01:25:11.278Z,95615.69
2018-07-26T01:27:40.376Z,95611.95
2018-07-26T01:30:09.498Z,95615.45
2018-07-26T01:32:38.646Z,95612.88
2018-07-26T01:35:07.739Z,95608.28
2018-07-26T01:37:36.958Z,95612.11
2018-07-26T01:40:06.088Z,95607.72
2018-07-26T01:42:45.295Z,95604.50
2018-07-26T01:45:14.373Z,95609.10
2018-07-26T01:47:43.607Z,95601.49
2018-07-26T01:50:12.693Z,95600.35
2018-07-26T01:52:41.893Z,95599.87
2018-07-26T01:55:10.985Z,95601.48
2018-07-26T01:57:40.194Z,95592.47
2018-07-26T02:00:09.347Z,95592.70
2018-07-26T02:02:38.469Z,95593.27
2018-07-26T02:05:07.573Z,95587.17
2018-07-26T02:07:36.797Z,95588.00
2018-07-26T02:10:05.909Z,95584.17
2018-07-26T02:12:35.005Z,95589.73
2018-07-26T02:15:04.180Z,95591.44
2018-07-26T02:17:33.308Z,95588.11
2018-07-26T02:20:02.409Z,95586.69
2018-07-26T02:22:31.517Z,95596.28
2018-07-26T02:25:00.676Z,95593.84
2018-07-26T02:27:29.792Z,95595.91
2018-07-26T02:29:58.980Z,95597.30
2018-07-26T02:32:28.081Z,95602.19
2018-07-26T02:34:57.180Z,95601.81
2018-07-26T02:37:26.287Z,95604.38
2018-07-26T02:39:55.568Z,95600.30
2018-07-26T02:42:24.669Z,95597.62
2018-07-26T02:44:53.768Z,95599.56
2018-07-26T02:47:22.936Z,95600.00
2018-07-26T02:49:52.049Z,95595.64
2018-07-26T02:52:21.167Z,95596.55
2018-07-26T02:54:50.387Z,95604.41
2018-07-26T02:57:19.518Z,95599.12
2018-07-26T02:59:48.654Z,95599.80
2018-07-26T03:02:17.870Z,95599.80
2018-07-26T03:04:46.998Z,95603.25
2018-07-26T03:07:16.178Z,95608.89
2018-07-26T03:09:45.502Z,95610.49
2018-07-26T03:12:14.678Z,95608.22
2018-07-26T03:14:45.121Z,95612.23
2018-07-26T03:17:15.615Z,95609.22
2018-07-26T03:19:45.439Z,95608.72
2018-07-26T03:22:14.765Z,95606.66
2018-07-26T03:24:43.870Z,95609.21
2018-07-26T03:27:13.051Z,95613.70
2018-07-26T03:29:42.145Z,95613.53
2018-07-26T03:32:11.397Z,95608.39
2018-07-26T03:34:40.517Z,95614.91
2018-07-26T03:37:09.709Z,95626.45
2018-07-26T03:39:38.825Z,95628.83
2018-07-26T03:42:08.028Z,95623.66
2018-07-26T03:44:37.178Z,95624.04
2018-07-26T03:47:06.553Z,95631.70
2018-07-26T03:49:35.673Z,95629.03
2018-07-26T03:52:04.889Z,95621.34
2018-07-26T03:54:34.061Z,95628.93
2018-07-26T03:57:03.250Z,95625.70
2018-07-26T03:59:32.364Z,95624.41
2018-07-26T04:02:01.456Z,95625.33
2018-07-26T04:04:30.677Z,95626.89
2018-07-26T04:06:59.860Z,95626.03
2018-07-26T04:09:29.064Z,95628.34
2018-07-26T04:11:58.398Z,95625.57
2018-07-26T04:14:27.498Z,95628.06
2018-07-26T04:16:56.651Z,95627.63
2018-07-26T04:19:25.853Z,95626.47
2018-07-26T04:21:55.489Z,95633.42
2018-07-26T04:24:24.700Z,95623.84
2018-07-26T04:26:54.013Z,95630.31
2018-07-26T04:29:23.305Z,95624.22
2018-07-26T04:31:52.427Z,95624.76
2018-07-26T04:34:21.552Z,95629.61
2018-07-26T04:36:50.666Z,95625.97
2018-07-26T04:39:19.814Z,95622.50
2018-07-26T04:41:48.949Z,95634.73
2018-07-26T04:44:18.078Z,95627.17
2018-07-26T04:46:47.204Z,95627.77
2018-07-26T04:49:16.365Z,95638.83
2018-07-26T04:51:45.585Z,95646.34
2018-07-26T04:54:14.726Z,95643.22
2018-07-26T04:56:43.935Z,95648.55
2018-07-26T04:59:13.084Z,95650.63
2018-07-26T05:01:42.640Z,95651.41
2018-07-26T05:04:11.758Z,95653.59
2018-07-26T05:06:40.933Z,95650.78
2018-07-26T05:09:11.644Z,95653.67
2018-07-26T05:11:40.897Z,95650.59
2018-07-26T05:14:10.000Z,95660.56
2018-07-26T05:16:39.180Z,95656.05
2018-07-26T05:19:08.330Z,95661.95
2018-07-26T05:21:37.821Z,95666.34
2018-07-26T05:24:09.319Z,95669.03
2018-07-26T05:26:40.017Z,95670.09
2018-07-26T05:29:09.119Z,95669.88
2018-07-26T05:31:38.242Z,95668.58
2018-07-26T05:34:07.388Z,95670.54
2018-07-26T05:36:36.618Z,95679.56
2018-07-26T05:39:08.868Z,95671.83
2018-07-26T05:41:38.077Z,95671.02
2018-07-26T05:44:07.181Z,95673.58
2018-07-26T05:46:36.377Z,95672.44
2018-07-26T05:49:05.762Z,95671.17
2018-07-26T05:51:34.940Z,95670.26
2018-07-26T05:54:04.252Z,95674.19
2018-07-26T05:56:33.478Z,95672.33
2018-07-26T05:59:02.559Z,95675.92
2018-07-26T06:01:31.656Z,95680.31
2018-07-26T06:04:00.934Z,95682.38
2018-07-26T06:06:30.270Z,95685.06
2018-07-26T06:08:59.362Z,95684.57
2018-07-26T06:11:28.557Z,95685.73
2018-07-26T06:13:57.678Z,95678.21
2018-07-26T06:16:26.789Z,95673.83
2018-07-26T06:18:55.959Z,95683.51
2018-07-26T06:21:25.077Z,95685.00
2018-07-26T06:23:54.153Z,95686.37
2018-07-26T06:26:23.483Z,95685.56
2018-07-26T06:28:52.721Z,95688.78
2018-07-26T06:31:21.781Z,95688.89
2018-07-26T06:33:50.886Z,95683.23
2018-07-26T06:36:20.040Z,95685.64
2018-07-26T06:38:49.329Z,95688.63
2018-07-26T06:41:18.414Z,95687.58
2018-07-26T06:43:47.549Z,95685.48
2018-07-26T06:46:16.855Z,95681.80
2018-07-26T06:48:45.977Z,95682.54
2018-07-26T06:51:15.257Z,95692.63
2018-07-26T06:53:44.349Z,95693.94
2018-07-26T06:56:13.457Z,95689.50
2018-07-26T06:58:42.553Z,95695.14
2018-07-26T07:01:11.698Z,95691.45
2018-07-26T07:03:40.780Z,95694.90
2018-07-26T07:06:09.868Z,95698.00
2018-07-26T07:08:39.013Z,95694.95
2018-07-26T07:11:08.180Z,95693.70
2018-07-26T07:13:37.291Z,95699.01
2018-07-26T07:16:06.392Z,95700.49
2018-07-26T07:18:35.550Z,95702.18
2018-07-26T07:21:04.675Z,95710.02
2018-07-26T07:23:33.824Z,95709.78
2018-07-26T07:26:02.985Z,95706.03
2018-07-26T07:28:32.060Z,95699.26
2018-07-26T07:31:01.201Z,95710.22
2018-07-26T07:33:30.314Z,95705.17
2018-07-26T07:35:59.501Z,95702.84
2018-07-26T07:38:28.610Z,95704.35
2018-07-26T07:40:57.846Z,95702.64
2018-07-26T07:43:27.014Z,95701.77
2018-07-26T07:45:56.124Z,95693.98
2018-07-26T07:48:25.217Z,95696.67
2018-07-26T07:50:54.553Z,95700.63
2018-07-26T07:53:23.622Z,95701.29
2018-07-26T07:55:52.761Z,95704.84
2018-07-26T07:58:21.877Z,95702.02
2018-07-26T08:00:51.061Z,95703.08
2018-07-26T08:03:20.241Z,95694.22
2018-07-26T08:05:49.398Z,95703.77
2018-07-26T08:08:18.517Z,95700.31
2018-07-26T08:10:47.613Z,95704.70
2018-07-26T08:13:16.780Z,95695.03
2018-07-26T08:15:45.914Z,95694.75
2018-07-26T08:18:14.976Z,95705.68
2018-07-26T08:20:44.096Z,95702.37
2018-07-26T08:23:13.244Z,95703.77
2018-07-26T08:25:42.376Z,95703.61
2018-07-26T08:28:11.624Z,95711.03
2018-07-26T08:30:40.776Z,95708.98
2018-07-26T08:33:09.872Z,95715.86
2018-07-26T08:35:39.027Z,95714.47
2018-07-26T08:38:08.182Z,95716.45
2018-07-26T08:40:37.714Z,95717.41
2018-07-26T08:43:07.242Z,95720.26
2018-07-26T08:45:36.336Z,95710.66
2018-07-26T08:48:05.698Z,95720.19
2018-07-26T08:50:34.818Z,95716.14
2018-07-26T08:53:10.728Z,95713.64
2018-07-26T08:55:39.833Z,95713.86
2018-07-26T08:58:08.933Z,95714.00
2018-07-26T09:00:38.093Z,95709.55
2018-07-26T09:03:07.280Z,95708.23
2018-07-26T09:05:36.357Z,95710.76
2018-07-26T09:08:05.472Z,95701.10
2018-07-26T09:10:34.597Z,95710.27
2018-07-26T09:13:03.743Z,95709.97
2018-07-26T09:15:32.868Z,95709.16
2018-07-26T09:18:02.107Z,95708.16
2018-07-26T09:20:31.666Z,95712.11
2018-07-26T09:23:00.910Z,95706.44
2018-07-26T09:25:30.067Z,95700.07
2018-07-26T09:27:59.158Z,95707.30
2018-07-26T09:30:28.562Z,95708.69
2018-07-26T09:32:57.710Z,95709.95
2018-07-26T09:35:26.847Z,95696.18
2018-07-26T09:37:55.840Z,95696.88
2018-07-26T09:40:25.064Z,95707.14
2018-07-26T09:42:54.480Z,95701.92
2018-07-26T09:45:23.649Z,95703.48
2018-07-26T09:47:52.843Z,95706.16
2018-07-26T09:50:21.928Z,95704.35
2018-07-26T09:52:51.129Z,95698.62
2018-07-26T09:55:20.296Z,95698.87
2018-07-26T09:57:50.056Z,95688.02
2018-07-26T10:00:24.441Z,95699.28
2018-07-26T10:02:53.557Z,95697.13
2018-07-26T10:05:22.677Z,95695.86
2018-07-26T10:07:51.825Z,95688.42
2018-07-26T10:10:20.971Z,95688.28
2018-07-26T10:12:50.041Z,95683.36
2018-07-26T10:15:19.239Z,95689.19
2018-07-26T10:17:48.413Z,95688.91
2018-07-26T10:20:17.684Z,95684.73
2018-07-26T10:22:46.832Z,95690.15
2018-07-26T10:25:15.944Z,95696.95
2018-07-26T10:27:45.215Z,95695.36
2018-07-26T10:30:14.625Z,95680.72
2018-07-26T10:32:43.836Z,95689.37
2018-07-26T10:35:13.008Z,95683.73
2018-07-26T10:37:42.200Z,95684.44
2018-07-26T10:40:11.301Z,95681.06
2018-07-26T10:42:40.446Z,95680.58
2018-07-26T10:45:09.715Z,95687.94
2018-07-26T10:47:38.902Z,95681.16
2018-07-26T10:50:09.466Z,95685.39
2018-07-26T10:52:38.753Z,95688.84
2018-07-26T10:55:08.695Z,95685.02
2018-07-26T10:57:38.985Z,95677.25
2018-07-26T11:00:09.346Z,95686.15
2018-07-26T11:02:38.874Z,95681.20
2018-07-26T11:05:09.369Z,95684.50
2018-07-26T11:07:39.084Z,95678.96
2018-07-26T11:10:09.980Z,95681.49
2018-07-26T11:12:39.378Z,95677.39
2018-07-26T11:15:19.588Z,95671.17
2018-07-26T11:17:48.808Z,95676.27
2018-07-26T11:20:18.233Z,95671.45
2018-07-26T11:22:47.849Z,95669.40
2018-07-26T11:25:16.992Z,95668.73
2018-07-26T11:27:46.254Z,95666.56
2018-07-26T11:30:15.399Z,95668.84
2018-07-26T11:32:44.693Z,95666.58
2018-07-26T11:35:14.006Z,95668.14
2018-07-26T11:37:43.413Z,95662.11
2018-07-26T11:40:12.537Z,95664.15
2018-07-26T11:42:41.633Z,95657.25
2018-07-26T11:45:11.249Z,95660.56
2018-07-26T11:47:40.577Z,95665.44
2018-07-26T11:50:10.673Z,95665.52
2018-07-26T11:52:39.791Z,95667.13
2018-07-26T11:55:08.925Z,95657.94
2018-07-26T11:57:37.995Z,95657.55
2018-07-26T12:00:08.377Z,95649.83
2018-07-26T12:02:37.538Z,95654.63
2018-07-26T12:05:06.897Z,95651.12
2018-07-26T12:07:35.985Z,95645.78
2018-07-26T12:10:06.313Z,95644.38
2018-07-26T12:12:35.488Z,95643.71
2018-07-26T12:15:04.685Z,95646.62
2018-07-26T12:17:33.871Z,95643.59
2018-07-26T12:20:03.046Z,95637.53
2018-07-26T12:22:32.260Z,95638.25
2018-07-26T12:25:01.481Z,95638.74
2018-07-26T12:27:37.320Z,95639.14
2018-07-26T12:30:07.587Z,95638.92
2018-07-26T12:32:37.085Z,95644.03
2018-07-26T12:35:06.301Z,95644.37
2018-07-26T12:37:35.489Z,95645.48
2018-07-26T12:40:05.105Z,95642.75
2018-07-26T12:42:34.261Z,95638.73
2018-07-26T12:45:03.417Z,95635.88
2018-07-26T12:47:32.615Z,95633.44
2018-07-26T12:50:01.745Z,95626.59
2018-07-26T12:52:31.066Z,95626.84
2018-07-26T12:55:00.258Z,95619.94
2018-07-26T12:57:29.550Z,95620.89
2018-07-26T12:59:58.723Z,95621.44
2018-07-26T13:02:27.907Z,95621.67
2018-07-26T13:04:56.971Z,95618.48
2018-07-26T13:07:26.095Z,95611.53
2018-07-26T13:09:55.145Z,95612.73
2018-07-26T13:12:24.374Z,95611.50
2018-07-26T13:14:53.738Z,95614.76
2018-07-26T13:17:22.820Z,95613.80
2018-07-26T13:19:52.052Z,95605.59
2018-07-26T13:22:21.359Z,95604.53
2018-07-26T13:24:51.082Z,95601.81
2018-07-26T13:27:20.464Z,95596.80
2018-07-26T13:29:49.602Z,95600.80
2018-07-26T13:32:18.698Z,95606.52
2018-07-26T13:34:48.244Z,95600.77
2018-07-26T13:37:17.396Z,95603.72
2018-07-26T13:39:46.596Z,95597.55
2018-07-26T13:42:15.743Z,95605.73
2018-07-26T13:44:44.982Z,95602.97
2018-07-26T13:47:14.077Z,95598.86
2018-07-26T13:49:43.252Z,95601.98
2018-07-26T13:52:12.362Z,95592.88
2018-07-26T13:54:41.546Z,95597.91
2018-07-26T13:57:10.824Z,95585.59
2018-07-26T13:59:40.094Z,95577.23
2018-07-26T14:02:09.273Z,95592.58
2018-07-26T14:04:38.377Z,95591.83
2018-07-26T14:07:07.592Z,95586.28
2018-07-26T14:09:37.701Z,95575.73
2018-07-26T14:12:07.021Z,95586.50
2018-07-26T14:14:36.100Z,95583.09
2018-07-26T14:17:05.297Z,95581.83
2018-07-26T14:19:34.508Z,95578.80
2018-07-26T14:22:03.698Z,95576.96
2018-07-26T14:24:32.929Z,95579.43
2018-07-26T14:27:02.192Z,95580.52
2018-07-26T14:29:31.461Z,95579.38
2018-07-26T14:32:00.565Z,95583.24
2018-07-26T14:34:29.809Z,95577.34
2018-07-26T14:36:58.969Z,95574.27
2018-07-26T14:39:28.169Z,95573.37
2018-07-26T14:41:57.249Z,95572.42
2018-07-26T14:44:26.570Z,95575.45
2018-07-26T14:46:55.661Z,95571.55
2018-07-26T14:49:25.068Z,95569.48
2018-07-26T14:51:54.309Z,95575.81
2018-07-26T14:54:23.481Z,95571.47
2018-07-26T14:56:52.603Z,95569.56
2018-07-26T14:59:21.836Z,95570.45
2018-07-26T15:01:50.993Z,95565.57
2018-07-26T15:04:20.237Z,95561.20
2018-07-26T15:06:49.344Z,95561.87
2018-07-26T15:09:18.495Z,95564.67
2018-07-26T15:11:47.897Z,95568.68
2018-07-26T15:14:17.345Z,95573.66
2018-07-26T15:16:46.368Z,95568.17
2018-07-26T15:19:15.554Z,95573.68
2018-07-26T15:21:44.839Z,95565.80
2018-07-26T15:24:16.968Z,95573.50
2018-07-26T15:26:46.077Z,95564.59
2018-07-26T15:29:15.142Z,95560.92
2018-07-26T15:31:44.700Z,95561.67
2018-07-26T15:34:14.128Z,95562.41
2018-07-26T15:36:43.637Z,95560.07
2018-07-26T15:39:12.916Z,95561.17
2018-07-26T15:41:43.674Z,95559.77
2018-07-26T15:44:13.958Z,95559.30
2018-07-26T15:46:43.383Z,95560.97
2018-07-26T15:49:12.606Z,95558.37
2018-07-26T15:51:41.864Z,95565.91
2018-07-26T15:54:11.065Z,95563.38
2018-07-26T15:56:40.239Z,95555.24
2018-07-26T15:59:09.567Z,95561.66
2018-07-26T16:01:38.838Z,95552.22
2018-07-26T16:04:07.981Z,95552.80
2018-07-26T16:06:37.132Z,95554.33
2018-07-26T16:09:09.231Z,95550.89
2018-07-26T16:11:38.499Z,95552.56
2018-07-26T16:14:08.283Z,95548.78
2018-07-26T16:16:37.405Z,95550.95
2018-07-26T16:19:06.699Z,95551.86
2018-07-26T16:21:36.055Z,95548.61
2018-07-26T16:24:05.552Z,95542.51
2018-07-26T16:26:34.586Z,95544.80
2018-07-26T16:29:03.923Z,95535.30
2018-07-26T16:31:33.068Z,95546.75
2018-07-26T16:34:02.265Z,95545.67
2018-07-26T16:36:31.416Z,95539.41
2018-07-26T16:39:00.717Z,95539.84
2018-07-26T16:41:30.025Z,95540.59
2018-07-26T16:43:59.118Z,95541.40
2018-07-26T16:46:28.176Z,95539.38
2018-07-26T16:48:57.292Z,95541.48
2018-07-26T16:51:28.004Z,95548.00
2018-07-26T16:53:57.749Z,95546.64
2018-07-26T16:56:26.940Z,95542.59
2018-07-26T16:58:56.270Z,95543.20
2018-07-26T17:01:25.328Z,95533.16
2018-07-26T17:03:54.445Z,95541.58
2018-07-26T17:06:23.580Z,95526.96
2018-07-26T17:08:52.696Z,95530.90
2018-07-26T17:11:21.864Z,95524.78
2018-07-26T17:13:51.106Z,95526.53
2018-07-26T17:16:20.417Z,95533.27
2018-07-26T17:18:49.596Z,95531.62
2018-07-26T17:21:18.709Z,95532.50
2018-07-26T17:23:48.004Z,95528.14
2018-07-26T17:26:17.177Z,95524.70
2018-07-26T17:28:46.256Z,95526.07
2018-07-26T17:31:15.497Z,95522.11
2018-07-26T17:33:44.625Z,95522.92
2018-07-26T17:36:13.810Z,95527.65
2018-07-26T17:38:43.197Z,95530.17
2018-07-26T17:41:12.418Z,95529.53
2018-07-26T17:43:41.513Z,95528.08
2018-07-26T17:46:10.602Z,95525.98
2018-07-26T17:48:39.721Z,95531.70
2018-07-26T17:51:08.908Z,95528.36
